createdAt,value
2024-01-06T00:00:57.851Z,6.37
2024-01-06T00:03:34.206Z,5.10
2024-01-06T00:06:14.497Z,5.23
2024-01-06T00:08:55.678Z,5.07
2024-01-06T00:11:31.645Z,4.03
2024-01-06T00:14:07.696Z,4.10
2024-01-06T00:16:43.651Z,3.83
2024-01-06T00:19:19.815Z,4.00
2024-01-06T00:21:55.907Z,3.97
2024-01-06T00:24:32.761Z,4.03
2024-01-06T00:27:08.851Z,3.10
2024-01-06T00:29:44.857Z,3.73
2024-01-06T00:32:20.788Z,3.03
2024-01-06T00:34:56.965Z,2.30
2024-01-06T00:37:32.954Z,2.10
2024-01-06T00:40:09.937Z,2.10
2024-01-06T00:42:45.907Z,2.23
2024-01-06T00:45:22.242Z,1.87
2024-01-06T00:47:58.612Z,1.50
2024-01-06T00:50:35.024Z,1.93
2024-01-06T00:53:12.869Z,2.20
2024-01-06T00:55:48.815Z,1.53
2024-01-06T00:58:24.831Z,1.37
2024-01-06T01:01:01.235Z,1.30
2024-01-06T01:03:37.300Z,1.40
2024-01-06T01:06:13.423Z,1.60
2024-01-06T01:08:49.507Z,1.80
2024-01-06T01:11:25.607Z,1.40
2024-01-06T01:14:01.612Z,1.50
2024-01-06T01:16:37.567Z,1.20
2024-01-06T01:19:13.602Z,1.40
2024-01-06T01:21:49.654Z,1.30
2024-01-06T01:24:25.713Z,1.27
2024-01-06T01:27:01.668Z,1.27
2024-01-06T01:29:37.604Z,1.20
2024-01-06T01:32:13.647Z,1.23
2024-01-06T01:34:49.631Z,1.30
2024-01-06T01:37:25.991Z,1.27
2024-01-06T01:40:02.272Z,1.33
2024-01-06T01:42:38.694Z,1.13
2024-01-06T01:45:14.907Z,1.10
2024-01-06T01:47:52.160Z,1.10
2024-01-06T01:50:29.029Z,1.10
2024-01-06T01:53:06.320Z,1.20
2024-01-06T01:55:44.349Z,1.00
2024-01-06T01:58:20.355Z,1.00
2024-01-06T02:00:56.441Z,1.00
2024-01-06T02:03:32.481Z,1.10
2024-01-06T02:06:08.516Z,0.93
2024-01-06T02:08:44.511Z,1.10
2024-01-06T02:11:20.730Z,1.00
2024-01-06T02:13:56.654Z,1.10
2024-01-06T02:16:32.628Z,1.10
2024-01-06T02:19:14.294Z,1.30
2024-01-06T02:21:55.140Z,1.27
2024-01-06T02:24:31.160Z,1.20
2024-01-06T02:27:07.173Z,1.17
2024-01-06T02:29:43.112Z,1.13
2024-01-06T02:32:19.003Z,1.10
2024-01-06T02:34:54.944Z,0.90
2024-01-06T02:37:31.789Z,1.03
2024-01-06T02:40:08.936Z,1.10
2024-01-06T02:42:44.857Z,1.03
2024-01-06T02:45:20.837Z,0.80
2024-01-06T02:47:57.316Z,1.10
2024-01-06T02:50:33.442Z,1.30
2024-01-06T02:53:10.852Z,0.80
2024-01-06T02:55:46.741Z,0.90
2024-01-06T02:58:22.690Z,0.90
2024-01-06T03:01:00.374Z,1.00
2024-01-06T03:03:36.455Z,0.90
2024-01-06T03:06:12.421Z,0.80
2024-01-06T03:08:48.350Z,1.00
2024-01-06T03:11:24.275Z,0.83
2024-01-06T03:14:00.190Z,0.97
2024-01-06T03:16:36.081Z,1.03
2024-01-06T03:19:12.109Z,0.73
2024-01-06T03:21:48.176Z,0.70
2024-01-06T03:24:25.537Z,1.30
2024-01-06T03:27:01.519Z,1.23
2024-01-06T03:29:37.518Z,0.90
2024-01-06T03:32:13.678Z,0.80
2024-01-06T03:34:49.661Z,0.80
2024-01-06T03:37:26.710Z,1.10
2024-01-06T03:40:02.819Z,1.03
2024-01-06T03:42:38.794Z,1.00
2024-01-06T03:45:14.829Z,0.97
2024-01-06T03:47:50.838Z,1.07
2024-01-06T03:50:26.856Z,1.00
2024-01-06T03:53:02.785Z,0.80
2024-01-06T03:55:38.672Z,0.90
2024-01-06T03:58:14.547Z,1.10
2024-01-06T04:00:50.569Z,0.90
2024-01-06T04:03:26.573Z,1.00
2024-01-06T04:06:03.154Z,0.80
2024-01-06T04:08:41.537Z,1.10
2024-01-06T04:11:17.428Z,1.03
2024-01-06T04:13:53.401Z,0.70
2024-01-06T04:16:29.375Z,0.80
2024-01-06T04:19:07.782Z,1.00
2024-01-06T04:21:43.753Z,1.00
2024-01-06T04:24:19.873Z,0.90
2024-01-06T04:26:55.844Z,0.80
2024-01-06T04:29:31.831Z,0.90
2024-01-06T04:32:08.714Z,1.23
2024-01-06T04:34:44.637Z,0.97
2024-01-06T04:37:20.586Z,1.07
2024-01-06T04:39:56.988Z,0.80
2024-01-06T04:42:32.954Z,1.10
2024-01-06T04:45:09.599Z,0.90
2024-01-06T04:47:45.567Z,0.80
2024-01-06T04:50:21.568Z,0.80
2024-01-06T04:52:58.647Z,0.90
2024-01-06T04:55:34.545Z,0.80
2024-01-06T04:58:10.412Z,1.10
2024-01-06T05:00:46.506Z,0.93
2024-01-06T05:03:22.469Z,1.00
2024-01-06T05:05:58.393Z,1.07
2024-01-06T05:08:34.301Z,0.87
2024-01-06T05:11:10.191Z,0.80
2024-01-06T05:13:46.090Z,0.83
2024-01-06T05:16:22.099Z,1.00
2024-01-06T05:18:58.287Z,0.83
2024-01-06T05:21:34.824Z,0.90
2024-01-06T05:24:10.746Z,0.90
2024-01-06T05:26:46.677Z,0.90
2024-01-06T05:29:22.566Z,0.97
2024-01-06T05:31:58.481Z,0.80
2024-01-06T05:34:34.589Z,0.90
2024-01-06T05:37:10.713Z,1.40
2024-01-06T05:39:46.655Z,0.93
2024-01-06T05:42:22.724Z,0.80
2024-01-06T05:44:58.628Z,0.90
2024-01-06T05:47:34.560Z,0.87
2024-01-06T05:50:11.416Z,0.90
2024-01-06T05:52:49.515Z,0.70
2024-01-06T05:55:25.521Z,0.80
2024-01-06T05:58:02.065Z,1.00
2024-01-06T06:00:38.057Z,0.80
2024-01-06T06:03:14.089Z,0.90
2024-01-06T06:05:50.163Z,0.90
2024-01-06T06:08:26.067Z,1.33
2024-01-06T06:11:03.002Z,1.20
2024-01-06T06:13:41.916Z,1.10
2024-01-06T06:16:17.853Z,0.90
2024-01-06T06:18:53.774Z,0.97
2024-01-06T06:21:29.819Z,1.00
2024-01-06T06:24:06.358Z,1.10
2024-01-06T06:26:42.611Z,1.43
2024-01-06T06:29:18.584Z,1.40
2024-01-06T06:31:54.663Z,0.90
2024-01-06T06:34:30.626Z,1.00
2024-01-06T06:37:06.700Z,1.20
2024-01-06T06:39:45.378Z,1.40
2024-01-06T06:42:21.359Z,1.07
2024-01-06T06:44:57.244Z,1.13
2024-01-06T06:47:33.612Z,1.40
2024-01-06T06:50:10.710Z,1.60
2024-01-06T06:52:47.942Z,1.57
2024-01-06T06:55:24.970Z,1.70
2024-01-06T06:58:06.050Z,1.60
2024-01-06T07:00:46.114Z,1.50
2024-01-06T07:03:22.361Z,1.33
2024-01-06T07:05:59.397Z,2.03
2024-01-06T07:08:35.612Z,1.30
2024-01-06T07:11:12.738Z,1.43
2024-01-06T07:13:48.976Z,1.50
2024-01-06T07:16:25.085Z,1.70
2024-01-06T07:19:01.199Z,1.30
2024-01-06T07:21:38.251Z,1.70
2024-01-06T07:24:14.814Z,1.33
2024-01-06T07:26:50.890Z,1.50
2024-01-06T07:29:27.089Z,1.30
2024-01-06T07:32:03.090Z,1.50
2024-01-06T07:34:39.094Z,1.50
2024-01-06T07:37:15.116Z,1.40
2024-01-06T07:39:51.256Z,1.27
2024-01-06T07:42:27.200Z,1.20
2024-01-06T07:45:03.557Z,1.20
2024-01-06T07:47:39.784Z,1.03
2024-01-06T07:50:15.878Z,1.20
2024-01-06T07:52:52.051Z,1.10
2024-01-06T07:55:29.822Z,1.00
2024-01-06T07:58:05.857Z,1.10
2024-01-06T08:00:42.280Z,0.90
2024-01-06T08:03:19.311Z,1.03
2024-01-06T08:05:56.360Z,0.87
2024-01-06T08:08:32.512Z,0.90
2024-01-06T08:11:08.512Z,1.10
2024-01-06T08:13:44.882Z,0.90
2024-01-06T08:16:21.248Z,0.90
2024-01-06T08:18:57.439Z,1.10
2024-01-06T08:21:35.004Z,1.10
2024-01-06T08:24:11.042Z,1.13
2024-01-06T08:26:47.080Z,0.90
2024-01-06T08:29:22.992Z,1.00
2024-01-06T08:31:59.231Z,0.90
2024-01-06T08:34:35.259Z,0.87
2024-01-06T08:37:11.331Z,1.00
2024-01-06T08:39:47.384Z,0.87
2024-01-06T08:42:26.884Z,0.90
2024-01-06T08:45:03.661Z,1.10
2024-01-06T08:47:39.657Z,1.03
2024-01-06T08:50:15.646Z,1.03
2024-01-06T08:52:51.601Z,1.20
2024-01-06T08:55:27.557Z,1.33
2024-01-06T08:58:03.988Z,1.30
2024-01-06T09:00:43.134Z,0.90
2024-01-06T09:03:19.437Z,1.20
2024-01-06T09:05:58.711Z,1.27
2024-01-06T09:08:34.947Z,1.37
2024-01-06T09:11:10.884Z,1.20
2024-01-06T09:13:46.842Z,1.20
2024-01-06T09:16:22.850Z,1.43
2024-01-06T09:18:59.350Z,1.30
2024-01-06T09:21:35.318Z,1.60
2024-01-06T09:24:11.263Z,1.30
2024-01-06T09:26:48.164Z,1.87
2024-01-06T09:29:24.370Z,1.10
2024-01-06T09:32:00.271Z,1.03
2024-01-06T09:34:40.109Z,1.30
2024-01-06T09:37:16.764Z,1.30
2024-01-06T09:39:52.757Z,1.10
2024-01-06T09:42:28.966Z,1.30
2024-01-06T09:45:05.864Z,1.33
2024-01-06T09:47:42.826Z,1.20
2024-01-06T09:50:22.574Z,1.10
2024-01-06T09:53:06.582Z,1.27
2024-01-06T09:55:43.553Z,1.30
2024-01-06T09:58:20.035Z,1.10
2024-01-06T10:00:57.165Z,1.13
2024-01-06T10:03:35.667Z,1.00
2024-01-06T10:06:11.853Z,0.97
2024-01-06T10:08:53.126Z,1.17
2024-01-06T10:11:29.011Z,0.90
2024-01-06T10:14:05.611Z,1.00
2024-01-06T10:16:41.583Z,1.30
2024-01-06T10:19:17.700Z,1.40
2024-01-06T10:21:54.424Z,1.20
2024-01-06T10:24:32.297Z,1.10
2024-01-06T10:27:10.097Z,1.30
2024-01-06T10:29:46.594Z,1.30
2024-01-06T10:32:22.537Z,1.10
2024-01-06T10:34:59.189Z,0.90
2024-01-06T10:37:35.119Z,0.93
2024-01-06T10:40:13.379Z,0.80
2024-01-06T10:42:49.509Z,1.07
2024-01-06T10:45:25.708Z,1.00
2024-01-06T10:48:04.264Z,1.00
2024-01-06T10:50:40.739Z,1.00
2024-01-06T10:53:18.432Z,1.13
2024-01-06T10:55:56.491Z,1.10
2024-01-06T10:58:34.760Z,1.20
2024-01-06T11:01:13.468Z,1.40
2024-01-06T11:03:51.210Z,1.27
2024-01-06T11:06:28.485Z,1.37
2024-01-06T11:09:15.809Z,1.20
2024-01-06T11:11:52.812Z,1.50
2024-01-06T11:14:29.588Z,1.50
2024-01-06T11:17:05.621Z,1.63
2024-01-06T11:19:41.820Z,1.40
2024-01-06T11:22:32.481Z,1.33
2024-01-06T11:25:14.926Z,1.60
2024-01-06T11:27:51.955Z,1.80
2024-01-06T11:30:30.496Z,2.10
2024-01-06T11:33:06.660Z,1.77
2024-01-06T11:35:45.141Z,1.63
2024-01-06T11:38:21.818Z,2.07
2024-01-06T11:41:00.780Z,2.13
2024-01-06T11:43:39.086Z,1.97
2024-01-06T11:46:15.180Z,2.30
2024-01-06T11:48:53.233Z,2.00
2024-01-06T11:51:29.464Z,1.93
2024-01-06T11:54:05.757Z,1.97
2024-01-06T11:56:41.735Z,2.30
2024-01-06T11:59:17.681Z,1.90
2024-01-06T12:01:53.712Z,2.30
2024-01-06T12:04:30.229Z,2.20
2024-01-06T12:07:08.254Z,1.90
2024-01-06T12:09:44.341Z,2.80
2024-01-06T12:12:20.516Z,2.40
2024-01-06T12:14:56.413Z,2.87
2024-01-06T12:17:32.761Z,2.63
2024-01-06T12:20:10.235Z,2.93
2024-01-06T12:22:46.220Z,2.40
2024-01-06T12:25:24.207Z,2.80
2024-01-06T12:28:02.653Z,3.07
2024-01-06T12:30:40.100Z,2.83
2024-01-06T12:33:16.379Z,3.10
2024-01-06T12:35:52.433Z,3.23
2024-01-06T12:38:28.897Z,4.07
2024-01-06T12:41:07.834Z,2.80
2024-01-06T12:43:44.032Z,2.60
2024-01-06T12:46:20.060Z,3.10
2024-01-06T12:48:56.086Z,3.33
2024-01-06T12:51:32.166Z,3.00
2024-01-06T12:54:08.195Z,3.13
2024-01-06T12:56:44.437Z,3.23
2024-01-06T12:59:20.333Z,3.13
2024-01-06T13:01:56.344Z,3.57
2024-01-06T13:04:32.475Z,3.97
2024-01-06T13:07:08.663Z,3.37
2024-01-06T13:09:45.544Z,3.77
2024-01-06T13:12:21.596Z,2.70
2024-01-06T13:14:57.757Z,3.90
2024-01-06T13:17:33.959Z,4.23
2024-01-06T13:20:10.479Z,3.80
2024-01-06T13:22:46.461Z,4.20
2024-01-06T13:25:23.235Z,4.83
2024-01-06T13:27:59.167Z,4.70
2024-01-06T13:30:35.649Z,4.23
2024-01-06T13:33:12.047Z,4.00
2024-01-06T13:35:48.184Z,4.40
2024-01-06T13:38:24.508Z,3.97
2024-01-06T13:41:00.416Z,4.67
2024-01-06T13:43:36.297Z,4.70
2024-01-06T13:46:14.937Z,5.03
2024-01-06T13:48:50.954Z,4.30
2024-01-06T13:51:27.011Z,4.83
2024-01-06T13:54:02.927Z,4.97
2024-01-06T13:56:38.990Z,5.10
2024-01-06T13:59:16.452Z,5.60
2024-01-06T14:01:53.034Z,5.13
2024-01-06T14:04:29.004Z,4.97
2024-01-06T14:07:05.928Z,5.40
2024-01-06T14:09:41.951Z,4.80
2024-01-06T14:12:18.056Z,5.40
2024-01-06T14:14:54.039Z,5.53
2024-01-06T14:17:30.022Z,6.00
2024-01-06T14:20:06.840Z,5.87
2024-01-06T14:22:42.825Z,5.50
2024-01-06T14:25:19.609Z,5.83
2024-01-06T14:27:55.652Z,5.10
2024-01-06T14:30:31.723Z,5.50
2024-01-06T14:33:07.839Z,6.20
2024-01-06T14:35:44.857Z,5.30
2024-01-06T14:38:21.706Z,6.03
2024-01-06T14:40:57.642Z,5.97
2024-01-06T14:43:33.977Z,6.27
2024-01-06T14:46:09.980Z,6.30
2024-01-06T14:48:46.174Z,5.90
2024-01-06T14:51:22.230Z,5.83
2024-01-06T14:53:58.248Z,6.57
2024-01-06T14:56:34.113Z,5.50
2024-01-06T14:59:10.016Z,5.97
2024-01-06T15:01:46.089Z,5.83
2024-01-06T15:04:22.660Z,5.80
2024-01-06T15:06:58.975Z,5.63
2024-01-06T15:09:39.764Z,5.73
2024-01-06T15:12:15.771Z,8.23
2024-01-06T15:14:51.693Z,8.20
2024-01-06T15:17:27.687Z,5.87
2024-01-06T15:20:06.314Z,5.90
2024-01-06T15:22:42.184Z,9.10
2024-01-06T15:25:19.143Z,7.20
2024-01-06T15:27:55.120Z,7.97
2024-01-06T15:30:31.314Z,7.20
2024-01-06T15:33:07.330Z,7.20
2024-01-06T15:35:43.306Z,7.40
2024-01-06T15:38:19.296Z,7.83
2024-01-06T15:40:55.206Z,7.53
2024-01-06T15:43:31.217Z,7.37
2024-01-06T15:46:07.195Z,7.90
2024-01-06T15:48:43.874Z,7.93
2024-01-06T15:51:20.293Z,7.87
2024-01-06T15:53:56.253Z,7.27
2024-01-06T15:56:33.401Z,7.60
2024-01-06T15:59:09.347Z,8.57
2024-01-06T16:01:47.855Z,7.03
2024-01-06T16:04:24.480Z,7.17
2024-01-06T16:07:00.555Z,7.90
2024-01-06T16:09:37.194Z,7.20
2024-01-06T16:12:13.467Z,8.23
2024-01-06T16:14:50.318Z,8.93
2024-01-06T16:17:26.652Z,8.47
2024-01-06T16:20:06.656Z,10.13
2024-01-06T16:22:43.155Z,9.27
2024-01-06T16:25:19.291Z,8.70
2024-01-06T16:27:56.262Z,10.80
2024-01-06T16:30:32.346Z,9.00
2024-01-06T16:33:09.863Z,9.30
2024-01-06T16:35:47.196Z,10.10
2024-01-06T16:38:23.160Z,8.83
2024-01-06T16:40:59.163Z,8.73
2024-01-06T16:43:38.497Z,8.43
2024-01-06T16:46:14.578Z,8.73
2024-01-06T16:48:51.073Z,9.57
2024-01-06T16:51:27.202Z,10.30
2024-01-06T16:54:03.178Z,9.97
2024-01-06T16:56:39.221Z,9.60
2024-01-06T16:59:15.337Z,9.47
2024-01-06T17:01:51.437Z,9.30
2024-01-06T17:04:27.879Z,10.60
2024-01-06T17:07:05.424Z,10.57
2024-01-06T17:09:41.608Z,10.00
2024-01-06T17:12:19.314Z,9.63
2024-01-06T17:14:56.532Z,9.67
2024-01-06T17:17:32.454Z,10.67
2024-01-06T17:20:12.310Z,10.10
2024-01-06T17:22:49.393Z,10.20
2024-01-06T17:25:25.352Z,10.40
2024-01-06T17:28:01.486Z,11.37
2024-01-06T17:30:38.955Z,10.20
2024-01-06T17:33:15.077Z,10.57
2024-01-06T17:35:51.112Z,10.40
2024-01-06T17:38:27.108Z,10.30
2024-01-06T17:41:03.928Z,9.93
2024-01-06T17:43:39.855Z,11.10
2024-01-06T17:46:15.833Z,10.47
2024-01-06T17:48:52.924Z,10.13
2024-01-06T17:51:30.300Z,10.53
2024-01-06T17:54:06.512Z,10.20
2024-01-06T17:56:43.051Z,9.23
2024-01-06T17:59:18.998Z,9.27
2024-01-06T18:01:55.040Z,11.23
2024-01-06T18:04:31.152Z,9.57
2024-01-06T18:07:08.929Z,11.20
2024-01-06T18:09:45.253Z,10.93
2024-01-06T18:12:21.339Z,11.50
2024-01-06T18:14:57.282Z,12.30
2024-01-06T18:17:36.347Z,11.70
2024-01-06T18:20:13.069Z,10.60
2024-01-06T18:22:49.880Z,11.83
2024-01-06T18:25:25.910Z,12.37
2024-01-06T18:28:02.736Z,15.60
2024-01-06T18:30:38.946Z,13.77
2024-01-06T18:33:15.182Z,11.70
2024-01-06T18:35:51.220Z,13.93
2024-01-06T18:38:27.262Z,13.03
2024-01-06T18:41:03.284Z,11.70
2024-01-06T18:43:40.828Z,11.60
2024-01-06T18:46:17.329Z,12.60
2024-01-06T18:48:53.340Z,12.07
2024-01-06T18:51:34.132Z,12.60
2024-01-06T18:54:16.415Z,12.63
2024-01-06T18:56:55.616Z,13.50
2024-01-06T18:59:31.658Z,12.77
2024-01-06T19:02:08.612Z,12.73
2024-01-06T19:04:45.199Z,12.20
2024-01-06T19:07:22.331Z,11.67
2024-01-06T19:09:58.343Z,12.10
2024-01-06T19:12:34.460Z,12.90
2024-01-06T19:15:10.527Z,13.07
2024-01-06T19:17:48.507Z,13.43
2024-01-06T19:20:24.681Z,13.20
2024-01-06T19:23:06.977Z,14.70
2024-01-06T19:25:45.694Z,15.13
2024-01-06T19:28:21.863Z,13.67
2024-01-06T19:31:00.508Z,13.23
2024-01-06T19:33:37.044Z,14.17
2024-01-06T19:36:14.594Z,12.17
2024-01-06T19:38:50.498Z,13.00
2024-01-06T19:41:26.535Z,15.10
2024-01-06T19:44:04.178Z,12.40
2024-01-06T19:46:41.038Z,13.33
2024-01-06T19:49:17.022Z,13.90
2024-01-06T19:51:53.021Z,13.37
2024-01-06T19:54:29.091Z,12.47
2024-01-06T19:57:06.456Z,13.70
2024-01-06T19:59:42.956Z,12.57
2024-01-06T20:02:19.155Z,13.87
2024-01-06T20:04:55.157Z,13.60
2024-01-06T20:07:31.720Z,12.53
2024-01-06T20:10:08.590Z,14.20
2024-01-06T20:12:44.675Z,13.47
2024-01-06T20:15:20.756Z,12.20
2024-01-06T20:17:56.750Z,12.80
2024-01-06T20:20:32.794Z,13.37
2024-01-06T20:23:09.017Z,13.43
2024-01-06T20:25:45.370Z,13.40
2024-01-06T20:28:21.266Z,12.80
2024-01-06T20:30:57.777Z,13.30
2024-01-06T20:33:34.886Z,13.10
2024-01-06T20:36:15.312Z,13.43
2024-01-06T20:38:52.935Z,12.90
2024-01-06T20:41:28.904Z,14.07
2024-01-06T20:44:07.065Z,13.87
2024-01-06T20:46:44.178Z,12.80
2024-01-06T20:49:20.535Z,12.93
2024-01-06T20:52:02.486Z,14.23
2024-01-06T20:54:42.707Z,12.83
2024-01-06T20:57:18.769Z,14.47
2024-01-06T20:59:54.648Z,13.93
2024-01-06T21:02:30.888Z,13.77
2024-01-06T21:05:07.689Z,14.57
2024-01-06T21:07:44.972Z,13.50
2024-01-06T21:10:21.562Z,13.00
2024-01-06T21:12:57.547Z,14.10
2024-01-06T21:15:33.561Z,14.70
2024-01-06T21:18:09.674Z,13.67
2024-01-06T21:20:45.643Z,13.60
2024-01-06T21:23:31.565Z,14.83
2024-01-06T21:26:16.258Z,14.47
2024-01-06T21:28:52.165Z,15.50
2024-01-06T21:31:28.831Z,14.67
2024-01-06T21:34:05.166Z,14.23
2024-01-06T21:36:41.636Z,16.13
2024-01-06T21:39:17.585Z,14.23
2024-01-06T21:41:53.473Z,14.70
2024-01-06T21:44:29.399Z,13.93
2024-01-06T21:47:05.356Z,13.27
2024-01-06T21:49:41.406Z,14.43
2024-01-06T21:52:18.375Z,14.07
2024-01-06T21:54:54.344Z,14.33
2024-01-06T21:57:30.315Z,14.93
2024-01-06T22:00:14.910Z,15.30
2024-01-06T22:02:52.132Z,14.03
2024-01-06T22:05:28.459Z,15.77
2024-01-06T22:08:05.722Z,15.30
2024-01-06T22:10:41.616Z,14.70
2024-01-06T22:13:17.473Z,14.20
2024-01-06T22:15:53.407Z,15.50
2024-01-06T22:18:29.396Z,15.67
2024-01-06T22:21:05.565Z,14.80
2024-01-06T22:23:41.646Z,16.73
2024-01-06T22:26:17.559Z,17.37
2024-01-06T22:28:53.437Z,15.27
2024-01-06T22:31:29.445Z,14.80
2024-01-06T22:36:41.492Z,14.93
2024-01-06T22:39:17.512Z,16.27
2024-01-06T22:41:56.583Z,14.80
2024-01-06T22:44:32.737Z,14.87
2024-01-06T22:47:08.638Z,13.70
2024-01-06T22:49:44.573Z,14.23
2024-01-06T22:52:20.662Z,15.37
2024-01-06T22:54:56.614Z,14.83
2024-01-06T22:57:33.771Z,15.07
2024-01-06T23:00:17.084Z,14.10
2024-01-06T23:02:53.786Z,15.00
2024-01-06T23:05:29.748Z,13.50
2024-01-06T23:08:06.382Z,15.10
2024-01-06T23:10:42.537Z,14.50
2024-01-06T23:13:19.778Z,13.27
2024-01-06T23:15:56.827Z,15.17
2024-01-06T23:18:33.132Z,13.40
2024-01-06T23:21:09.539Z,12.60
2024-01-06T23:23:45.456Z,13.90
2024-01-06T23:26:21.334Z,14.00
2024-01-06T23:28:57.538Z,15.57
2024-01-06T23:31:33.910Z,13.37
2024-01-06T23:34:21.791Z,14.40
2024-01-06T23:37:09.761Z,14.37
2024-01-06T23:39:45.820Z,12.70
2024-01-06T23:42:23.212Z,13.80
2024-01-06T23:44:59.468Z,13.30
2024-01-06T23:47:35.370Z,12.53
2024-01-06T23:50:11.359Z,12.60
2024-01-06T23:52:47.647Z,14.10
2024-01-06T23:55:23.656Z,13.87
2024-01-06T23:57:59.678Z,12.77
